sensor_id;sensor_type;location;lat;lon;timestamp;temperature;humidity
22249;DHT22;67538;52.180;5.646;2024-02-28T00:00:30;2.90;99.90
22249;DHT22;67538;52.180;5.646;2024-02-28T00:02:57;2.90;99.90
22249;DHT22;67538;52.180;5.646;2024-02-28T00:05:24;2.90;99.90
22249;DHT22;67538;52.180;5.646;2024-02-28T00:07:52;2.90;99.90
22249;DHT22;67538;52.180;5.646;2024-02-28T00:10:19;3.00;99.90
22249;DHT22;67538;52.180;5.646;2024-02-28T00:12:47;2.90;99.90
22249;DHT22;67538;52.180;5.646;2024-02-28T00:15:14;3.00;99.90
22249;DHT22;67538;52.180;5.646;2024-02-28T00:17:41;3.00;99.90
22249;DHT22;67538;52.180;5.646;2024-02-28T00:20:09;2.90;99.90
22249;DHT22;67538;52.180;5.646;2024-02-28T00:22:37;2.90;99.90
22249;DHT22;67538;52.180;5.646;2024-02-28T00:25:06;3.00;99.90
22249;DHT22;67538;52.180;5.646;2024-02-28T00:27:34;3.00;99.90
22249;DHT22;67538;52.180;5.646;2024-02-28T00:30:01;3.00;99.90
22249;DHT22;67538;52.180;5.646;2024-02-28T00:32:30;3.00;99.90
22249;DHT22;67538;52.180;5.646;2024-02-28T00:34:57;2.90;99.90
22249;DHT22;67538;52.180;5.646;2024-02-28T00:37:24;3.00;99.90
22249;DHT22;67538;52.180;5.646;2024-02-28T00:39:51;3.00;99.90
22249;DHT22;67538;52.180;5.646;2024-02-28T00:42:19;3.00;99.90
22249;DHT22;67538;52.180;5.646;2024-02-28T00:44:46;2.90;99.90
22249;DHT22;67538;52.180;5.646;2024-02-28T00:47:13;2.90;99.90
22249;DHT22;67538;52.180;5.646;2024-02-28T00:49:40;2.90;99.90
22249;DHT22;67538;52.180;5.646;2024-02-28T00:52:07;2.90;99.90
22249;DHT22;67538;52.180;5.646;2024-02-28T00:54:34;2.90;99.90
22249;DHT22;67538;52.180;5.646;2024-02-28T00:57:01;2.90;99.90
22249;DHT22;67538;52.180;5.646;2024-02-28T00:59:30;2.90;99.90
22249;DHT22;67538;52.180;5.646;2024-02-28T01:01:57;2.90;99.90
22249;DHT22;67538;52.180;5.646;2024-02-28T01:04:24;2.90;99.90
22249;DHT22;67538;52.180;5.646;2024-02-28T01:06:51;2.80;99.90
22249;DHT22;67538;52.180;5.646;2024-02-28T01:09:18;2.80;99.90
22249;DHT22;67538;52.180;5.646;2024-02-28T01:11:45;2.80;99.90
22249;DHT22;67538;52.180;5.646;2024-02-28T01:14:12;2.80;99.90
22249;DHT22;67538;52.180;5.646;2024-02-28T01:16:40;2.90;99.90
22249;DHT22;67538;52.180;5.646;2024-02-28T01:19:07;2.80;99.90
22249;DHT22;67538;52.180;5.646;2024-02-28T01:21:34;2.80;99.90
22249;DHT22;67538;52.180;5.646;2024-02-28T01:24:01;2.80;99.90
22249;DHT22;67538;52.180;5.646;2024-02-28T01:26:28;2.80;99.90
22249;DHT22;67538;52.180;5.646;2024-02-28T01:28:55;2.80;99.90
22249;DHT22;67538;52.180;5.646;2024-02-28T01:31:22;2.80;99.90
22249;DHT22;67538;52.180;5.646;2024-02-28T01:33:51;2.80;99.90
22249;DHT22;67538;52.180;5.646;2024-02-28T01:36:18;2.70;99.90
22249;DHT22;67538;52.180;5.646;2024-02-28T01:38:45;2.60;99.90
22249;DHT22;67538;52.180;5.646;2024-02-28T01:41:12;2.40;99.90
22249;DHT22;67538;52.180;5.646;2024-02-28T01:43:39;2.50;99.90
22249;DHT22;67538;52.180;5.646;2024-02-28T01:46:24;2.40;99.90
22249;DHT22;67538;52.180;5.646;2024-02-28T01:48:54;2.40;99.90
22249;DHT22;67538;52.180;5.646;2024-02-28T01:51:22;2.30;99.90
22249;DHT22;67538;52.180;5.646;2024-02-28T01:53:51;2.30;99.90
22249;DHT22;67538;52.180;5.646;2024-02-28T01:56:20;2.30;99.90
22249;DHT22;67538;52.180;5.646;2024-02-28T01:58:49;2.30;99.90
22249;DHT22;67538;52.180;5.646;2024-02-28T02:01:17;2.20;99.90
22249;DHT22;67538;52.180;5.646;2024-02-28T02:03:44;2.20;99.90
22249;DHT22;67538;52.180;5.646;2024-02-28T02:06:12;2.10;99.90
22249;DHT22;67538;52.180;5.646;2024-02-28T02:08:39;2.20;99.90
22249;DHT22;67538;52.180;5.646;2024-02-28T02:11:07;2.20;99.90
22249;DHT22;67538;52.180;5.646;2024-02-28T02:13:34;2.10;99.90
22249;DHT22;67538;52.180;5.646;2024-02-28T02:16:02;2.10;99.90
22249;DHT22;67538;52.180;5.646;2024-02-28T02:18:29;1.90;99.90
22249;DHT22;67538;52.180;5.646;2024-02-28T02:21:01;1.90;99.90
22249;DHT22;67538;52.180;5.646;2024-02-28T02:23:30;1.80;99.90
22249;DHT22;67538;52.180;5.646;2024-02-28T02:25:58;1.90;99.90
22249;DHT22;67538;52.180;5.646;2024-02-28T02:28:25;1.80;99.90
22249;DHT22;67538;52.180;5.646;2024-02-28T02:30:51;1.80;99.90
22249;DHT22;67538;52.180;5.646;2024-02-28T02:33:18;1.80;99.90
22249;DHT22;67538;52.180;5.646;2024-02-28T02:35:45;1.80;99.90
22249;DHT22;67538;52.180;5.646;2024-02-28T02:38:12;1.90;99.90
22249;DHT22;67538;52.180;5.646;2024-02-28T02:40:41;1.90;99.90
22249;DHT22;67538;52.180;5.646;2024-02-28T02:43:08;1.90;99.90
22249;DHT22;67538;52.180;5.646;2024-02-28T02:45:35;1.80;99.90
22249;DHT22;67538;52.180;5.646;2024-02-28T02:48:02;1.80;99.90
22249;DHT22;67538;52.180;5.646;2024-02-28T02:50:29;1.80;99.90
22249;DHT22;67538;52.180;5.646;2024-02-28T02:52:56;1.70;99.90
22249;DHT22;67538;52.180;5.646;2024-02-28T02:55:23;1.80;99.90
22249;DHT22;67538;52.180;5.646;2024-02-28T02:57:52;1.70;99.90
22249;DHT22;67538;52.180;5.646;2024-02-28T03:00:19;1.80;99.90
22249;DHT22;67538;52.180;5.646;2024-02-28T03:02:46;1.70;99.90
22249;DHT22;67538;52.180;5.646;2024-02-28T03:05:13;1.70;99.90
22249;DHT22;67538;52.180;5.646;2024-02-28T03:07:40;1.60;99.90
22249;DHT22;67538;52.180;5.646;2024-02-28T03:10:07;1.70;99.90
22249;DHT22;67538;52.180;5.646;2024-02-28T03:12:36;1.70;99.90
22249;DHT22;67538;52.180;5.646;2024-02-28T03:15:05;1.60;99.90
22249;DHT22;67538;52.180;5.646;2024-02-28T03:17:33;1.70;99.90
22249;DHT22;67538;52.180;5.646;2024-02-28T03:20:00;1.60;99.90
22249;DHT22;67538;52.180;5.646;2024-02-28T03:22:27;1.60;99.90
22249;DHT22;67538;52.180;5.646;2024-02-28T03:24:54;1.50;99.90
22249;DHT22;67538;52.180;5.646;2024-02-28T03:27:21;1.60;99.90
22249;DHT22;67538;52.180;5.646;2024-02-28T03:29:48;1.60;99.90
22249;DHT22;67538;52.180;5.646;2024-02-28T03:32:16;1.60;99.90
22249;DHT22;67538;52.180;5.646;2024-02-28T03:34:43;1.70;99.90
22249;DHT22;67538;52.180;5.646;2024-02-28T03:37:10;1.60;99.90
22249;DHT22;67538;52.180;5.646;2024-02-28T03:39:37;1.70;99.90
22249;DHT22;67538;52.180;5.646;2024-02-28T03:42:04;1.80;99.90
22249;DHT22;67538;52.180;5.646;2024-02-28T03:44:31;1.80;99.90
22249;DHT22;67538;52.180;5.646;2024-02-28T03:46:58;1.80;99.90
22249;DHT22;67538;52.180;5.646;2024-02-28T03:49:27;1.80;99.90
22249;DHT22;67538;52.180;5.646;2024-02-28T03:51:54;1.90;99.90
22249;DHT22;67538;52.180;5.646;2024-02-28T03:54:22;1.90;99.90
22249;DHT22;67538;52.180;5.646;2024-02-28T03:56:49;1.90;99.90
22249;DHT22;67538;52.180;5.646;2024-02-28T03:59:16;1.90;99.90
22249;DHT22;67538;52.180;5.646;2024-02-28T04:01:43;2.00;99.90
22249;DHT22;67538;52.180;5.646;2024-02-28T04:04:10;2.00;99.90
22249;DHT22;67538;52.180;5.646;2024-02-28T04:06:38;2.00;99.90
22249;DHT22;67538;52.180;5.646;2024-02-28T04:09:05;2.00;99.90
22249;DHT22;67538;52.180;5.646;2024-02-28T04:11:33;2.10;99.90
22249;DHT22;67538;52.180;5.646;2024-02-28T04:14:00;2.20;99.90
22249;DHT22;67538;52.180;5.646;2024-02-28T04:16:27;2.10;99.90
22249;DHT22;67538;52.180;5.646;2024-02-28T04:18:55;2.20;99.90
22249;DHT22;67538;52.180;5.646;2024-02-28T04:21:22;2.20;99.90
22249;DHT22;67538;52.180;5.646;2024-02-28T04:23:50;2.30;99.90
22249;DHT22;67538;52.180;5.646;2024-02-28T04:26:17;2.30;99.90
22249;DHT22;67538;52.180;5.646;2024-02-28T04:28:44;2.30;99.90
22249;DHT22;67538;52.180;5.646;2024-02-28T04:31:11;2.30;99.90
22249;DHT22;67538;52.180;5.646;2024-02-28T04:33:38;2.30;99.90
22249;DHT22;67538;52.180;5.646;2024-02-28T04:36:06;2.40;99.90
22249;DHT22;67538;52.180;5.646;2024-02-28T04:38:33;2.30;99.90
22249;DHT22;67538;52.180;5.646;2024-02-28T04:41:01;2.40;99.90
22249;DHT22;67538;52.180;5.646;2024-02-28T04:43:29;2.50;99.90
22249;DHT22;67538;52.180;5.646;2024-02-28T04:45:56;2.40;99.90
22249;DHT22;67538;52.180;5.646;2024-02-28T04:48:23;2.50;99.90
22249;DHT22;67538;52.180;5.646;2024-02-28T04:50:49;2.50;99.90
22249;DHT22;67538;52.180;5.646;2024-02-28T04:53:16;2.60;99.90
22249;DHT22;67538;52.180;5.646;2024-02-28T04:55:43;2.50;99.90
22249;DHT22;67538;52.180;5.646;2024-02-28T04:58:12;2.60;99.90
22249;DHT22;67538;52.180;5.646;2024-02-28T05:00:39;2.60;99.90
22249;DHT22;67538;52.180;5.646;2024-02-28T05:03:06;2.60;99.90
22249;DHT22;67538;52.180;5.646;2024-02-28T05:05:33;2.60;99.90
22249;DHT22;67538;52.180;5.646;2024-02-28T05:08:00;2.70;99.90
22249;DHT22;67538;52.180;5.646;2024-02-28T05:10:27;2.60;99.90
22249;DHT22;67538;52.180;5.646;2024-02-28T05:12:54;2.70;99.90
22249;DHT22;67538;52.180;5.646;2024-02-28T05:15:22;2.70;99.90
22249;DHT22;67538;52.180;5.646;2024-02-28T05:17:50;2.70;99.90
22249;DHT22;67538;52.180;5.646;2024-02-28T05:20:17;2.70;99.90
22249;DHT22;67538;52.180;5.646;2024-02-28T05:22:44;2.60;99.90
22249;DHT22;67538;52.180;5.646;2024-02-28T05:25:11;2.70;99.90
22249;DHT22;67538;52.180;5.646;2024-02-28T05:27:38;2.80;99.90
22249;DHT22;67538;52.180;5.646;2024-02-28T05:30:06;2.80;99.90
22249;DHT22;67538;52.180;5.646;2024-02-28T05:32:35;2.70;99.90
22249;DHT22;67538;52.180;5.646;2024-02-28T05:35:02;2.80;99.90
22249;DHT22;67538;52.180;5.646;2024-02-28T05:37:29;2.80;99.90
22249;DHT22;67538;52.180;5.646;2024-02-28T05:39:56;2.80;99.90
22249;DHT22;67538;52.180;5.646;2024-02-28T05:42:23;2.80;99.90
22249;DHT22;67538;52.180;5.646;2024-02-28T05:44:51;2.90;99.90
22249;DHT22;67538;52.180;5.646;2024-02-28T05:47:18;2.80;99.90
22249;DHT22;67538;52.180;5.646;2024-02-28T05:49:46;2.80;99.90
22249;DHT22;67538;52.180;5.646;2024-02-28T05:52:13;2.80;99.90
22249;DHT22;67538;52.180;5.646;2024-02-28T05:54:40;2.90;99.90
22249;DHT22;67538;52.180;5.646;2024-02-28T05:57:08;2.90;99.90
22249;DHT22;67538;52.180;5.646;2024-02-28T05:59:35;2.90;99.90
22249;DHT22;67538;52.180;5.646;2024-02-28T06:02:02;3.00;99.90
22249;DHT22;67538;52.180;5.646;2024-02-28T06:04:29;3.00;99.90
22249;DHT22;67538;52.180;5.646;2024-02-28T06:06:58;3.00;99.90
22249;DHT22;67538;52.180;5.646;2024-02-28T06:09:25;3.00;99.90
22249;DHT22;67538;52.180;5.646;2024-02-28T06:11:53;3.00;99.90
22249;DHT22;67538;52.180;5.646;2024-02-28T06:14:20;3.00;99.90
22249;DHT22;67538;52.180;5.646;2024-02-28T06:16:47;3.10;99.90
22249;DHT22;67538;52.180;5.646;2024-02-28T06:19:14;3.00;99.90
22249;DHT22;67538;52.180;5.646;2024-02-28T06:21:42;3.00;99.90
22249;DHT22;67538;52.180;5.646;2024-02-28T06:24:10;3.00;99.90
22249;DHT22;67538;52.180;5.646;2024-02-28T06:26:37;3.00;99.90
22249;DHT22;67538;52.180;5.646;2024-02-28T06:29:04;3.00;99.90
22249;DHT22;67538;52.180;5.646;2024-02-28T06:31:32;3.10;99.90
22249;DHT22;67538;52.180;5.646;2024-02-28T06:33:59;3.10;99.90
22249;DHT22;67538;52.180;5.646;2024-02-28T06:36:27;3.20;99.90
22249;DHT22;67538;52.180;5.646;2024-02-28T06:38:55;3.10;99.90
22249;DHT22;67538;52.180;5.646;2024-02-28T06:41:24;3.20;99.90
22249;DHT22;67538;52.180;5.646;2024-02-28T06:43:51;3.30;99.90
22249;DHT22;67538;52.180;5.646;2024-02-28T06:46:18;3.40;99.90
22249;DHT22;67538;52.180;5.646;2024-02-28T06:48:45;3.30;99.90
22249;DHT22;67538;52.180;5.646;2024-02-28T06:51:12;3.30;99.90
22249;DHT22;67538;52.180;5.646;2024-02-28T06:53:39;3.30;99.90
22249;DHT22;67538;52.180;5.646;2024-02-28T06:56:06;3.30;99.90
22249;DHT22;67538;52.180;5.646;2024-02-28T06:58:34;3.30;99.90
22249;DHT22;67538;52.180;5.646;2024-02-28T07:01:01;3.40;99.90
22249;DHT22;67538;52.180;5.646;2024-02-28T07:03:29;3.40;99.90
22249;DHT22;67538;52.180;5.646;2024-02-28T07:05:56;3.30;99.90
22249;DHT22;67538;52.180;5.646;2024-02-28T07:08:23;3.30;99.90
22249;DHT22;67538;52.180;5.646;2024-02-28T07:10:50;3.30;99.90
22249;DHT22;67538;52.180;5.646;2024-02-28T07:13:19;3.30;99.90
22249;DHT22;67538;52.180;5.646;2024-02-28T07:15:47;3.30;99.90
22249;DHT22;67538;52.180;5.646;2024-02-28T07:18:15;3.40;99.90
22249;DHT22;67538;52.180;5.646;2024-02-28T07:20:42;3.40;99.90
22249;DHT22;67538;52.180;5.646;2024-02-28T07:23:09;3.40;99.90
22249;DHT22;67538;52.180;5.646;2024-02-28T07:25:36;3.50;99.90
22249;DHT22;67538;52.180;5.646;2024-02-28T07:28:04;3.50;99.90
22249;DHT22;67538;52.180;5.646;2024-02-28T07:30:31;3.50;99.90
22249;DHT22;67538;52.180;5.646;2024-02-28T07:33:00;3.50;99.90
22249;DHT22;67538;52.180;5.646;2024-02-28T07:35:27;3.50;99.90
22249;DHT22;67538;52.180;5.646;2024-02-28T07:37:53;3.60;99.90
22249;DHT22;67538;52.180;5.646;2024-02-28T07:40:20;3.70;99.90
22249;DHT22;67538;52.180;5.646;2024-02-28T07:42:47;3.70;99.90
22249;DHT22;67538;52.180;5.646;2024-02-28T07:45:15;3.70;99.90
22249;DHT22;67538;52.180;5.646;2024-02-28T07:47:42;3.80;99.90
22249;DHT22;67538;52.180;5.646;2024-02-28T07:50:10;3.70;99.90
22249;DHT22;67538;52.180;5.646;2024-02-28T07:52:37;3.70;99.90
22249;DHT22;67538;52.180;5.646;2024-02-28T07:55:05;3.70;99.90
22249;DHT22;67538;52.180;5.646;2024-02-28T07:57:32;3.80;99.90
22249;DHT22;67538;52.180;5.646;2024-02-28T07:59:59;3.80;99.90
22249;DHT22;67538;52.180;5.646;2024-02-28T08:02:26;3.80;99.90
22249;DHT22;67538;52.180;5.646;2024-02-28T08:04:53;3.80;99.90
22249;DHT22;67538;52.180;5.646;2024-02-28T08:07:22;3.80;99.90
22249;DHT22;67538;52.180;5.646;2024-02-28T08:09:49;3.80;99.90
22249;DHT22;67538;52.180;5.646;2024-02-28T08:12:16;3.80;99.90
22249;DHT22;67538;52.180;5.646;2024-02-28T08:14:43;3.80;99.90
22249;DHT22;67538;52.180;5.646;2024-02-28T08:17:11;3.80;99.90
22249;DHT22;67538;52.180;5.646;2024-02-28T08:19:41;3.80;99.90
22249;DHT22;67538;52.180;5.646;2024-02-28T08:22:08;3.90;99.90
22249;DHT22;67538;52.180;5.646;2024-02-28T08:24:37;3.90;99.90
22249;DHT22;67538;52.180;5.646;2024-02-28T08:27:05;3.90;99.90
22249;DHT22;67538;52.180;5.646;2024-02-28T08:29:32;4.00;99.90
22249;DHT22;67538;52.180;5.646;2024-02-28T08:32:01;4.00;99.90
22249;DHT22;67538;52.180;5.646;2024-02-28T08:34:28;4.00;99.90
22249;DHT22;67538;52.180;5.646;2024-02-28T08:36:55;3.90;99.90
22249;DHT22;67538;52.180;5.646;2024-02-28T08:39:22;4.00;99.90
22249;DHT22;67538;52.180;5.646;2024-02-28T08:41:51;4.00;99.90
22249;DHT22;67538;52.180;5.646;2024-02-28T08:44:18;4.10;99.90
22249;DHT22;67538;52.180;5.646;2024-02-28T08:46:46;4.10;99.90
22249;DHT22;67538;52.180;5.646;2024-02-28T08:49:14;4.10;99.90
22249;DHT22;67538;52.180;5.646;2024-02-28T08:51:42;4.30;99.90
22249;DHT22;67538;52.180;5.646;2024-02-28T08:54:09;4.30;99.90
22249;DHT22;67538;52.180;5.646;2024-02-28T08:56:37;4.30;99.90
22249;DHT22;67538;52.180;5.646;2024-02-28T08:59:05;4.30;99.90
22249;DHT22;67538;52.180;5.646;2024-02-28T09:01:32;4.40;99.90
22249;DHT22;67538;52.180;5.646;2024-02-28T09:04:00;4.40;99.90
22249;DHT22;67538;52.180;5.646;2024-02-28T09:06:26;4.30;99.90
22249;DHT22;67538;52.180;5.646;2024-02-28T09:08:53;4.30;99.90
22249;DHT22;67538;52.180;5.646;2024-02-28T09:11:20;4.30;99.90
22249;DHT22;67538;52.180;5.646;2024-02-28T09:13:47;4.40;99.90
22249;DHT22;67538;52.180;5.646;2024-02-28T09:16:16;4.40;99.90
22249;DHT22;67538;52.180;5.646;2024-02-28T09:18:43;4.40;99.90
22249;DHT22;67538;52.180;5.646;2024-02-28T09:21:10;4.50;99.90
22249;DHT22;67538;52.180;5.646;2024-02-28T09:23:37;4.60;99.90
22249;DHT22;67538;52.180;5.646;2024-02-28T09:26:04;4.60;99.90
22249;DHT22;67538;52.180;5.646;2024-02-28T09:28:31;4.70;99.90
22249;DHT22;67538;52.180;5.646;2024-02-28T09:30:58;4.70;99.90
22249;DHT22;67538;52.180;5.646;2024-02-28T09:33:27;4.70;99.90
22249;DHT22;67538;52.180;5.646;2024-02-28T09:35:54;4.70;99.90
22249;DHT22;67538;52.180;5.646;2024-02-28T09:38:21;4.80;99.90
22249;DHT22;67538;52.180;5.646;2024-02-28T09:40:49;4.90;99.90
22249;DHT22;67538;52.180;5.646;2024-02-28T09:43:21;4.90;99.90
22249;DHT22;67538;52.180;5.646;2024-02-28T09:45:50;5.00;99.90
22249;DHT22;67538;52.180;5.646;2024-02-28T09:48:18;5.00;99.90
22249;DHT22;67538;52.180;5.646;2024-02-28T09:50:47;5.00;99.90
22249;DHT22;67538;52.180;5.646;2024-02-28T09:53:14;5.10;99.90
22249;DHT22;67538;52.180;5.646;2024-02-28T09:55:41;5.20;99.90
22249;DHT22;67538;52.180;5.646;2024-02-28T09:58:09;5.30;99.90
22249;DHT22;67538;52.180;5.646;2024-02-28T10:00:37;5.40;99.90
22249;DHT22;67538;52.180;5.646;2024-02-28T10:03:05;5.40;99.90
22249;DHT22;67538;52.180;5.646;2024-02-28T10:05:33;5.50;99.90
22249;DHT22;67538;52.180;5.646;2024-02-28T10:08:02;5.50;99.90
22249;DHT22;67538;52.180;5.646;2024-02-28T10:10:29;5.70;99.90
22249;DHT22;67538;52.180;5.646;2024-02-28T10:12:56;5.70;99.90
22249;DHT22;67538;52.180;5.646;2024-02-28T10:15:26;5.60;99.90
22249;DHT22;67538;52.180;5.646;2024-02-28T10:17:54;5.70;99.90
22249;DHT22;67538;52.180;5.646;2024-02-28T10:20:21;5.80;99.90
22249;DHT22;67538;52.180;5.646;2024-02-28T10:22:48;5.80;99.90
22249;DHT22;67538;52.180;5.646;2024-02-28T10:25:17;5.80;99.90
22249;DHT22;67538;52.180;5.646;2024-02-28T10:27:47;5.80;99.90
22249;DHT22;67538;52.180;5.646;2024-02-28T10:30:14;5.90;99.90
22249;DHT22;67538;52.180;5.646;2024-02-28T10:32:48;6.10;99.90
22249;DHT22;67538;52.180;5.646;2024-02-28T10:35:17;6.20;99.90
22249;DHT22;67538;52.180;5.646;2024-02-28T10:37:45;6.30;99.90
22249;DHT22;67538;52.180;5.646;2024-02-28T10:40:15;6.50;99.90
22249;DHT22;67538;52.180;5.646;2024-02-28T10:42:43;6.50;99.90
22249;DHT22;67538;52.180;5.646;2024-02-28T10:45:10;6.60;99.90
22249;DHT22;67538;52.180;5.646;2024-02-28T10:47:38;6.90;99.90
22249;DHT22;67538;52.180;5.646;2024-02-28T10:50:06;7.00;99.90
22249;DHT22;67538;52.180;5.646;2024-02-28T10:52:34;7.10;99.90
22249;DHT22;67538;52.180;5.646;2024-02-28T10:55:07;7.40;99.90
22249;DHT22;67538;52.180;5.646;2024-02-28T10:57:36;7.30;99.90
22249;DHT22;67538;52.180;5.646;2024-02-28T11:00:06;7.20;99.90
22249;DHT22;67538;52.180;5.646;2024-02-28T11:02:34;7.20;99.90
22249;DHT22;67538;52.180;5.646;2024-02-28T11:05:01;7.10;99.90
22249;DHT22;67538;52.180;5.646;2024-02-28T11:07:30;7.10;99.90
22249;DHT22;67538;52.180;5.646;2024-02-28T11:09:57;7.00;99.90
22249;DHT22;67538;52.180;5.646;2024-02-28T11:12:25;7.00;99.90
22249;DHT22;67538;52.180;5.646;2024-02-28T11:14:59;7.10;99.90
22249;DHT22;67538;52.180;5.646;2024-02-28T11:17:28;7.20;99.90
22249;DHT22;67538;52.180;5.646;2024-02-28T11:19:55;7.30;99.90
22249;DHT22;67538;52.180;5.646;2024-02-28T11:22:22;7.40;99.90
22249;DHT22;67538;52.180;5.646;2024-02-28T11:24:53;7.50;99.90
22249;DHT22;67538;52.180;5.646;2024-02-28T11:27:20;7.50;99.90
22249;DHT22;67538;52.180;5.646;2024-02-28T11:29:47;7.40;99.90
22249;DHT22;67538;52.180;5.646;2024-02-28T11:32:16;7.20;99.90
22249;DHT22;67538;52.180;5.646;2024-02-28T11:34:43;7.30;99.90
22249;DHT22;67538;52.180;5.646;2024-02-28T11:37:11;7.40;99.90
22249;DHT22;67538;52.180;5.646;2024-02-28T11:39:38;7.60;99.90
22249;DHT22;67538;52.180;5.646;2024-02-28T11:42:12;7.70;99.90
22249;DHT22;67538;52.180;5.646;2024-02-28T11:44:40;7.90;99.90
22249;DHT22;67538;52.180;5.646;2024-02-28T11:47:09;7.80;99.90
22249;DHT22;67538;52.180;5.646;2024-02-28T11:49:37;7.80;99.90
22249;DHT22;67538;52.180;5.646;2024-02-28T11:52:05;7.80;99.90
22249;DHT22;67538;52.180;5.646;2024-02-28T11:54:32;7.70;99.90
22249;DHT22;67538;52.180;5.646;2024-02-28T11:56:59;7.80;99.90
22249;DHT22;67538;52.180;5.646;2024-02-28T11:59:26;7.80;99.90
22249;DHT22;67538;52.180;5.646;2024-02-28T12:01:53;7.80;99.90
22249;DHT22;67538;52.180;5.646;2024-02-28T12:04:24;7.90;99.90
22249;DHT22;67538;52.180;5.646;2024-02-28T12:06:53;7.70;99.90
22249;DHT22;67538;52.180;5.646;2024-02-28T12:09:20;7.80;99.90
22249;DHT22;67538;52.180;5.646;2024-02-28T12:11:47;7.80;99.90
22249;DHT22;67538;52.180;5.646;2024-02-28T12:14:14;7.80;99.90
22249;DHT22;67538;52.180;5.646;2024-02-28T12:16:41;7.80;99.90
22249;DHT22;67538;52.180;5.646;2024-02-28T12:19:10;7.90;99.90
22249;DHT22;67538;52.180;5.646;2024-02-28T12:21:38;7.90;99.90
22249;DHT22;67538;52.180;5.646;2024-02-28T12:24:07;8.00;99.90
22249;DHT22;67538;52.180;5.646;2024-02-28T12:26:35;8.10;99.90
22249;DHT22;67538;52.180;5.646;2024-02-28T12:29:02;8.10;99.90
22249;DHT22;67538;52.180;5.646;2024-02-28T12:31:29;8.10;99.90
22249;DHT22;67538;52.180;5.646;2024-02-28T12:33:56;8.10;99.90
22249;DHT22;67538;52.180;5.646;2024-02-28T12:36:24;8.10;99.90
22249;DHT22;67538;52.180;5.646;2024-02-28T12:38:52;8.20;99.90
22249;DHT22;67538;52.180;5.646;2024-02-28T12:41:20;8.10;99.90
22249;DHT22;67538;52.180;5.646;2024-02-28T12:43:47;8.00;99.90
22249;DHT22;67538;52.180;5.646;2024-02-28T12:46:15;8.00;99.90
22249;DHT22;67538;52.180;5.646;2024-02-28T12:48:42;8.10;99.90
22249;DHT22;67538;52.180;5.646;2024-02-28T12:51:20;8.10;99.90
22249;DHT22;67538;52.180;5.646;2024-02-28T12:53:47;8.10;99.90
22249;DHT22;67538;52.180;5.646;2024-02-28T12:56:14;8.20;99.90
22249;DHT22;67538;52.180;5.646;2024-02-28T12:58:43;8.20;99.90
22249;DHT22;67538;52.180;5.646;2024-02-28T13:01:11;8.20;99.90
22249;DHT22;67538;52.180;5.646;2024-02-28T13:03:38;8.10;99.90
22249;DHT22;67538;52.180;5.646;2024-02-28T13:06:05;8.00;99.90
22249;DHT22;67538;52.180;5.646;2024-02-28T13:08:32;8.10;99.90
22249;DHT22;67538;52.180;5.646;2024-02-28T13:10:59;8.10;99.90
22249;DHT22;67538;52.180;5.646;2024-02-28T13:13:26;8.10;99.90
22249;DHT22;67538;52.180;5.646;2024-02-28T13:15:55;8.10;99.90
22249;DHT22;67538;52.180;5.646;2024-02-28T13:18:22;8.10;99.90
22249;DHT22;67538;52.180;5.646;2024-02-28T13:20:49;8.10;99.90
22249;DHT22;67538;52.180;5.646;2024-02-28T13:23:16;8.10;99.90
22249;DHT22;67538;52.180;5.646;2024-02-28T13:25:43;8.10;99.90
22249;DHT22;67538;52.180;5.646;2024-02-28T13:28:10;8.00;99.90
22249;DHT22;67538;52.180;5.646;2024-02-28T13:30:37;8.10;99.90
22249;DHT22;67538;52.180;5.646;2024-02-28T13:33:05;8.10;99.90
22249;DHT22;67538;52.180;5.646;2024-02-28T13:35:33;8.10;99.90
22249;DHT22;67538;52.180;5.646;2024-02-28T13:38:00;8.30;99.90
22249;DHT22;67538;52.180;5.646;2024-02-28T13:40:27;8.40;99.90
22249;DHT22;67538;52.180;5.646;2024-02-28T13:42:54;8.50;99.90
22249;DHT22;67538;52.180;5.646;2024-02-28T13:45:21;8.60;99.90
22249;DHT22;67538;52.180;5.646;2024-02-28T13:47:48;8.70;99.90
22249;DHT22;67538;52.180;5.646;2024-02-28T13:50:17;8.80;99.90
22249;DHT22;67538;52.180;5.646;2024-02-28T13:52:44;8.80;99.90
22249;DHT22;67538;52.180;5.646;2024-02-28T13:55:11;8.90;99.90
22249;DHT22;67538;52.180;5.646;2024-02-28T13:57:38;9.00;99.90
22249;DHT22;67538;52.180;5.646;2024-02-28T14:00:06;9.10;99.90
22249;DHT22;67538;52.180;5.646;2024-02-28T14:02:36;9.00;99.90
22249;DHT22;67538;52.180;5.646;2024-02-28T14:05:04;9.00;99.90
22249;DHT22;67538;52.180;5.646;2024-02-28T14:07:34;9.10;99.90
22249;DHT22;67538;52.180;5.646;2024-02-28T14:10:03;9.00;99.90
22249;DHT22;67538;52.180;5.646;2024-02-28T14:12:30;9.10;99.90
22249;DHT22;67538;52.180;5.646;2024-02-28T14:14:57;9.00;99.90
22249;DHT22;67538;52.180;5.646;2024-02-28T14:17:24;9.10;99.90
22249;DHT22;67538;52.180;5.646;2024-02-28T14:19:51;9.10;99.90
22249;DHT22;67538;52.180;5.646;2024-02-28T14:22:18;9.10;99.90
22249;DHT22;67538;52.180;5.646;2024-02-28T14:24:46;9.10;99.90
22249;DHT22;67538;52.180;5.646;2024-02-28T14:27:14;9.00;99.90
22249;DHT22;67538;52.180;5.646;2024-02-28T14:29:41;9.00;99.90
22249;DHT22;67538;52.180;5.646;2024-02-28T14:32:08;9.00;99.90
22249;DHT22;67538;52.180;5.646;2024-02-28T14:34:35;9.00;99.90
22249;DHT22;67538;52.180;5.646;2024-02-28T14:37:02;9.00;99.90
22249;DHT22;67538;52.180;5.646;2024-02-28T14:39:30;8.90;99.90
22249;DHT22;67538;52.180;5.646;2024-02-28T14:41:58;9.00;99.90
22249;DHT22;67538;52.180;5.646;2024-02-28T14:44:25;9.00;99.90
22249;DHT22;67538;52.180;5.646;2024-02-28T14:46:52;8.90;99.90
22249;DHT22;67538;52.180;5.646;2024-02-28T14:49:19;8.90;99.90
22249;DHT22;67538;52.180;5.646;2024-02-28T14:51:46;8.90;99.90
22249;DHT22;67538;52.180;5.646;2024-02-28T14:54:14;9.00;99.90
22249;DHT22;67538;52.180;5.646;2024-02-28T14:56:41;8.90;99.90
22249;DHT22;67538;52.180;5.646;2024-02-28T14:59:09;9.00;99.90
22249;DHT22;67538;52.180;5.646;2024-02-28T15:01:36;9.00;99.90
22249;DHT22;67538;52.180;5.646;2024-02-28T15:04:03;9.00;99.90
22249;DHT22;67538;52.180;5.646;2024-02-28T15:06:30;9.00;99.90
22249;DHT22;67538;52.180;5.646;2024-02-28T15:08:57;9.10;99.90
22249;DHT22;67538;52.180;5.646;2024-02-28T15:11:25;9.10;99.90
22249;DHT22;67538;52.180;5.646;2024-02-28T15:13:52;9.20;99.90
22249;DHT22;67538;52.180;5.646;2024-02-28T15:16:20;9.30;99.90
22249;DHT22;67538;52.180;5.646;2024-02-28T15:18:47;9.20;99.90
22249;DHT22;67538;52.180;5.646;2024-02-28T15:21:14;9.20;99.90
22249;DHT22;67538;52.180;5.646;2024-02-28T15:23:41;9.20;99.90
22249;DHT22;67538;52.180;5.646;2024-02-28T15:26:08;9.20;99.90
22249;DHT22;67538;52.180;5.646;2024-02-28T15:28:35;9.10;99.90
22249;DHT22;67538;52.180;5.646;2024-02-28T15:31:02;9.10;99.90
22249;DHT22;67538;52.180;5.646;2024-02-28T15:33:30;9.10;99.90
22249;DHT22;67538;52.180;5.646;2024-02-28T15:35:57;9.10;99.90
22249;DHT22;67538;52.180;5.646;2024-02-28T15:38:25;9.10;99.90
22249;DHT22;67538;52.180;5.646;2024-02-28T15:40:52;9.10;99.90
22249;DHT22;67538;52.180;5.646;2024-02-28T15:43:20;9.10;99.90
22249;DHT22;67538;52.180;5.646;2024-02-28T15:45:47;9.00;99.90